Time;durP1;ratioP1;P1;durP2;ratioP2;P2;SDS_P1;SDS_P2;PMS_P1;PMS_P2;Temp;Humidity;BMP_temperature;BMP_pressure;BME280_temperature;BME280_humidity;BME280_pressure;Samples;Min_cycle;Max_cycle;Signal;HPM_P1;HPM_P2
2022/06/11 00:01:36;;;;;;;8.20;5.80;;;;;;;18.98;52.61;100276.86;117440;1186;22886;-48
2022/06/11 00:04:06;;;;;;;9.10;6.40;;;;;;;18.96;52.58;100274.15;117479;1188;21843;-48
2022/06/11 00:06:36;;;;;;;6.90;6.20;;;;;;;18.93;52.64;100275.51;117450;1186;22975;-51
2022/06/11 00:09:04;;;;;;;7.50;5.70;;;;;;;18.90;52.69;100272.61;117423;1186;21860;-48
2022/06/11 00:11:31;;;;;;;7.00;6.10;;;;;;;18.91;52.75;100272.23;117454;1186;22982;-55
2022/06/11 00:13:58;;;;;;;8.00;7.20;;;;;;;18.89;52.84;100277.27;117424;1183;22126;-48
2022/06/11 00:16:25;;;;;;;8.60;7.80;;;;;;;18.86;52.87;100281.86;117318;1182;23541;-49
2022/06/11 00:18:56;;;;;;;10.80;9.80;;;;;;;18.82;52.80;100279.73;117329;1183;21849;-52
2022/06/11 00:21:25;;;;;;;8.70;7.40;;;;;;;18.75;52.75;100283.29;117401;1179;22898;-48
2022/06/11 00:23:52;;;;;;;6.60;5.40;;;;;;;18.70;52.61;100274.46;117429;1183;21861;-49
2022/06/11 00:26:20;;;;;;;8.10;6.10;;;;;;;18.69;52.57;100277.70;117384;1186;21854;-49
2022/06/11 00:28:47;;;;;;;5.60;4.90;;;;;;;18.58;52.66;100284.95;117516;1186;21857;-48
2022/06/11 00:31:15;;;;;;;5.20;4.70;;;;;;;18.57;52.83;100284.68;117424;1183;22956;-49
2022/06/11 00:33:42;;;;;;;6.70;6.00;;;;;;;18.65;52.86;100280.05;117435;1183;21858;-56
2022/06/11 00:36:09;;;;;;;7.00;6.40;;;;;;;18.68;52.92;100279.51;117409;1183;22857;-56
2022/06/11 00:38:36;;;;;;;16.80;6.70;;;;;;;18.62;53.06;100284.42;117441;1186;21970;-56
2022/06/11 00:41:04;;;;;;;7.70;6.90;;;;;;;18.62;53.15;100284.27;117383;1183;24224;-56
2022/06/11 00:43:31;;;;;;;6.70;6.10;;;;;;;18.59;53.21;100287.76;117331;1186;21880;-48
2022/06/11 00:46:19;;;;;;;6.90;6.20;;;;;;;18.57;53.34;100286.79;117475;1183;21836;-49
2022/06/11 00:48:46;;;;;;;6.90;6.20;;;;;;;18.59;53.31;100292.75;117408;1185;22647;-55
2022/06/11 00:51:18;;;;;;;6.90;5.90;;;;;;;18.58;53.43;100292.95;117358;1182;24785;-48
2022/06/11 00:54:13;;;;;;;7.10;6.00;;;;;;;18.58;53.54;100290.13;117329;1182;23356;-51
2022/06/11 00:56:44;;;;;;;6.40;5.80;;;;;;;18.57;53.53;100286.27;117221;1185;23544;-49
2022/06/11 00:59:14;;;;;;;7.30;6.30;;;;;;;18.56;53.51;100285.25;117043;1189;22310;-49
2022/06/11 01:01:41;;;;;;;6.60;5.90;;;;;;;18.60;53.49;100284.00;117001;1188;23475;-48
2022/06/11 01:04:40;;;;;;;6.30;5.70;;;;;;;18.62;53.41;100283.05;117190;1186;22921;-48
2022/06/11 01:07:13;;;;;;;6.50;5.50;;;;;;;18.57;53.35;100282.00;117229;1182;23535;-48
2022/06/11 01:10:12;;;;;;;6.10;5.50;;;;;;;18.54;53.31;100281.05;117145;1183;22180;-54
2022/06/11 01:12:49;;;;;;;9.20;5.80;;;;;;;18.44;53.35;100284.21;117164;1186;21904;-56
2022/06/11 01:15:17;;;;;;;5.70;5.10;;;;;;;18.36;53.71;100287.41;117168;1186;22988;-48
2022/06/11 01:18:22;;;;;;;6.20;5.60;;;;;;;18.32;53.78;100290.80;117245;1186;23566;-49
2022/06/11 01:20:56;;;;;;;8.50;5.30;;;;;;;18.33;53.81;100294.31;117105;1185;22988;-55
2022/06/11 01:24:01;;;;;;;6.30;5.70;;;;;;;18.36;53.98;100296.50;117170;1182;23701;-56
2022/06/11 01:27:01;;;;;;;6.40;5.80;;;;;;;18.39;53.97;100297.75;117189;1188;22901;-55
2022/06/11 01:29:52;;;;;;;7.10;6.40;;;;;;;18.42;54.09;100299.38;117319;1183;24714;-48
2022/06/11 01:32:19;;;;;;;;;;;;;;;18.45;54.15;100297.48;117182;1186;21861;-56
2022/06/11 01:35:16;;;;;;;7.50;6.80;;;;;;;18.46;54.06;100300.80;117157;1185;23541;-48
2022/06/11 01:37:55;;;;;;;10.80;9.30;;;;;;;18.48;54.03;100304.08;117202;1184;22959;-55
2022/06/11 01:40:25;;;;;;;8.90;8.10;;;;;;;18.49;54.04;100306.17;117418;1182;23436;-55
2022/06/11 01:43:01;;;;;;;9.40;8.60;;;;;;;18.50;54.14;100305.96;117370;1183;22887;-55
2022/06/11 01:45:31;;;;;;;9.10;8.20;;;;;;;18.51;54.14;100308.39;117250;1186;23540;-55
2022/06/11 01:47:58;;;;;;;8.20;7.50;;;;;;;18.56;54.34;100311.88;117409;1184;21851;-55
2022/06/11 01:50:28;;;;;;;8.50;7.70;;;;;;;18.63;54.40;100308.21;117245;1183;22033;-50
2022/06/11 01:52:58;;;;;;;9.10;8.10;;;;;;;18.73;54.54;100305.96;117378;1186;21881;-55
2022/06/11 01:55:42;;;;;;;10.90;9.90;;;;;;;18.83;54.71;100308.52;117423;1186;22507;-55
2022/06/11 01:58:40;;;;;;;13.40;10.80;;;;;;;18.91;54.70;100311.35;117353;1184;21853;-55
2022/06/11 02:01:45;;;;;;;11.50;10.40;;;;;;;18.92;54.65;100312.16;117376;1182;21851;-48
2022/06/11 02:04:20;;;;;;;11.10;10.00;;;;;;;18.94;54.70;100312.61;116979;1186;23033;-56
2022/06/11 02:07:05;;;;;;;11.50;10.30;;;;;;;18.96;54.78;100311.85;117205;1185;22093;-48
2022/06/11 02:09:45;;;;;;;14.20;10.10;;;;;;;18.97;54.71;100311.96;117224;1186;22905;-49
2022/06/11 02:12:14;;;;;;;11.10;10.10;;;;;;;18.98;54.82;100313.31;117431;1185;21977;-56
2022/06/11 02:15:16;;;;;;;11.10;9.90;;;;;;;19.03;54.85;100311.84;117404;1182;23550;-55
2022/06/11 02:17:46;;;;;;;14.30;9.30;;;;;;;19.09;54.88;100313.16;117386;1185;22991;-55
2022/06/11 02:20:16;;;;;;;9.60;8.60;;;;;;;19.10;54.81;100314.67;117362;1185;23563;-55
2022/06/11 02:22:45;;;;;;;10.60;8.00;;;;;;;19.12;54.96;100314.07;117395;1186;21971;-48
2022/06/11 02:25:12;;;;;;;7.70;7.00;;;;;;;19.11;54.81;100314.64;117419;1185;21851;-55
2022/06/11 02:27:40;;;;;;;15.30;8.20;;;;;;;19.13;54.82;100315.29;117229;1182;23673;-55
2022/06/11 02:30:09;;;;;;;11.00;8.00;;;;;;;19.30;54.79;100312.30;117319;1186;22898;-50
2022/06/11 02:32:36;;;;;;;10.90;8.50;;;;;;;19.42;54.69;100313.11;117351;1186;23458;-49
2022/06/11 02:35:07;;;;;;;11.90;7.30;;;;;;;19.45;54.71;100311.38;117305;1183;23541;-49
2022/06/11 02:37:37;;;;;;;13.50;7.00;;;;;;;19.48;54.62;100311.05;117398;1186;21903;-49
2022/06/11 02:40:16;;;;;;;15.40;7.20;;;;;;;19.43;54.66;100311.48;117379;1182;22972;-49
2022/06/11 02:42:44;;;;;;;11.70;6.90;;;;;;;19.30;54.88;100310.54;117370;1183;23671;-48
2022/06/11 02:45:12;;;;;;;8.50;7.30;;;;;;;19.25;54.80;100314.34;117326;1183;22927;-55
2022/06/11 02:47:40;;;;;;;8.20;7.00;;;;;;;19.28;54.87;100317.91;117308;1183;23532;-49
2022/06/11 02:50:08;;;;;;;14.00;7.90;;;;;;;19.25;54.94;100320.38;117406;1185;21881;-49
2022/06/11 02:52:37;;;;;;;19.90;7.90;;;;;;;19.20;55.02;100320.84;117372;1182;22642;-49
2022/06/11 02:55:04;;;;;;;11.30;7.60;;;;;;;19.19;55.19;100319.81;117327;1186;23006;-49
2022/06/11 02:57:32;;;;;;;9.00;8.10;;;;;;;19.21;55.23;100323.23;117395;1188;21858;-55
2022/06/11 02:59:59;;;;;;;8.10;6.90;;;;;;;19.25;55.30;100322.87;117408;1186;24222;-54
2022/06/11 03:02:26;;;;;;;9.40;7.20;;;;;;;19.30;55.32;100320.83;117403;1186;22963;-48
2022/06/11 03:04:54;;;;;;;8.10;7.30;;;;;;;19.39;55.34;100325.23;117334;1185;22896;-49
2022/06/11 03:07:22;;;;;;;8.60;7.60;;;;;;;19.37;55.38;100320.85;117326;1185;22913;-56
2022/06/11 03:09:49;;;;;;;13.70;7.70;;;;;;;19.40;55.35;100323.02;117369;1182;22986;-56
2022/06/11 03:12:16;;;;;;;9.50;7.30;;;;;;;19.53;55.31;100322.35;117348;1181;23564;-55
2022/06/11 03:14:43;;;;;;;7.70;6.90;;;;;;;19.60;55.40;100323.80;117301;1185;23052;-55
2022/06/11 03:17:12;;;;;;;8.10;7.30;;;;;;;19.61;55.61;100325.20;117247;1186;23753;-56
2022/06/11 03:19:39;;;;;;;9.80;7.80;;;;;;;19.68;55.73;100327.30;117456;1183;21852;-55
2022/06/11 03:22:07;;;;;;;10.20;8.00;;;;;;;19.77;55.78;100325.94;117314;1185;22079;-55
2022/06/11 03:24:34;;;;;;;10.00;8.10;;;;;;;19.86;55.85;100326.92;117190;1180;22988;-55
2022/06/11 03:27:02;;;;;;;9.50;8.10;;;;;;;19.95;55.97;100330.21;117414;1182;24135;-55
2022/06/11 03:29:29;;;;;;;8.20;7.40;;;;;;;20.05;56.04;100333.27;117366;1185;21843;-49
2022/06/11 03:31:56;;;;;;;9.60;7.00;;;;;;;20.13;56.06;100334.48;117151;1183;23447;-49
2022/06/11 03:34:23;;;;;;;9.90;6.90;;;;;;;20.21;56.07;100331.90;117329;1185;23448;-55
2022/06/11 03:36:52;;;;;;;8.30;6.90;;;;;;;20.36;56.05;100327.58;117373;1186;23662;-50
2022/06/11 03:39:20;;;;;;;10.10;8.10;;;;;;;20.50;55.89;100327.84;117463;1184;21859;-50
2022/06/11 03:41:48;;;;;;;11.00;8.80;;;;;;;20.50;56.12;100327.48;117344;1182;22166;-56
2022/06/11 03:44:15;;;;;;;13.90;9.70;;;;;;;20.66;56.05;100331.80;117227;1186;22620;-50
2022/06/11 03:46:43;;;;;;;10.10;8.70;;;;;;;20.73;56.13;100333.38;117398;1184;22057;-56
2022/06/11 03:49:10;;;;;;;12.90;10.10;;;;;;;20.79;56.32;100336.96;117413;1186;24232;-56
2022/06/11 03:51:37;;;;;;;13.20;10.50;;;;;;;20.89;56.31;100341.61;117365;1183;22906;-50
2022/06/11 03:54:04;;;;;;;13.60;10.30;;;;;;;20.99;56.31;100342.48;117359;1182;23554;-51
2022/06/11 03:56:31;;;;;;;19.00;9.80;;;;;;;21.10;56.32;100340.09;117261;1185;22954;-54
2022/06/11 03:58:58;;;;;;;11.50;9.10;;;;;;;21.26;56.37;100342.20;117282;1183;21842;-49
2022/06/11 04:01:25;;;;;;;10.60;9.30;;;;;;;21.42;56.29;100342.22;117328;1180;22969;-56
2022/06/11 04:03:55;;;;;;;13.20;9.00;;;;;;;21.53;56.35;100342.29;117248;1185;22940;-56
2022/06/11 04:06:28;;;;;;;14.00;10.20;;;;;;;21.63;56.38;100347.06;117327;1176;23462;-49
2022/06/11 04:08:55;;;;;;;13.50;10.10;;;;;;;21.74;56.35;100347.65;117380;1182;22967;-56
2022/06/11 04:11:22;;;;;;;12.00;9.60;;;;;;;21.87;56.39;100345.62;117241;1186;21884;-55
2022/06/11 04:13:50;;;;;;;11.50;9.10;;;;;;;22.00;56.45;100344.30;117371;1186;22371;-56
2022/06/11 04:16:27;;;;;;;12.40;10.60;;;;;;;22.12;56.49;100341.98;117386;1184;21889;-49
2022/06/11 04:18:56;;;;;;;12.80;9.70;;;;;;;22.23;56.50;100341.70;117354;1185;22917;-49
2022/06/11 04:21:23;;;;;;;11.40;9.10;;;;;;;22.34;56.37;100343.70;117284;1185;22720;-50
2022/06/11 04:23:51;;;;;;;12.60;10.60;;;;;;;22.47;56.39;100350.40;117430;1182;23541;-56
2022/06/11 04:26:22;;;;;;;12.50;9.90;;;;;;;22.58;56.37;100350.06;117375;1182;23455;-56
2022/06/11 04:28:49;;;;;;;11.80;10.30;;;;;;;22.69;56.32;100348.14;117435;1183;22915;-55
2022/06/11 04:31:17;;;;;;;12.90;10.40;;;;;;;22.83;56.32;100346.56;117466;1185;21913;-50
2022/06/11 04:33:44;;;;;;;15.00;12.30;;;;;;;23.04;56.50;100345.04;117419;1183;23474;-55
2022/06/11 04:36:11;;;;;;;12.60;11.40;;;;;;;23.14;56.26;100344.38;117442;1182;23551;-56
2022/06/11 04:38:39;;;;;;;13.10;11.40;;;;;;;23.15;56.13;100344.12;117378;1182;22915;-50
2022/06/11 04:41:07;;;;;;;15.40;12.10;;;;;;;23.19;56.23;100340.67;117433;1182;23467;-50
2022/06/11 04:43:34;;;;;;;15.90;12.70;;;;;;;23.26;56.19;100339.52;117608;1183;23333;-50
2022/06/11 04:46:02;;;;;;;17.60;13.60;;;;;;;23.36;56.22;100339.02;117427;1185;22873;-56
2022/06/11 04:48:29;;;;;;;17.00;15.20;;;;;;;23.44;56.21;100334.70;117490;1185;23444;-55
2022/06/11 04:50:56;;;;;;;16.30;14.60;;;;;;;23.53;56.26;100333.93;117381;1182;24209;-55
2022/06/11 04:53:23;;;;;;;16.90;14.00;;;;;;;23.64;56.26;100337.38;117385;1186;21935;-50
2022/06/11 04:55:51;;;;;;;16.40;12.90;;;;;;;23.73;56.08;100341.04;117385;1182;22033;-56
2022/06/11 04:58:18;;;;;;;14.00;12.60;;;;;;;23.82;56.11;100343.62;117403;1185;21938;-55
2022/06/11 05:00:45;;;;;;;15.50;12.80;;;;;;;23.88;56.27;100346.81;117372;1182;23537;-50
2022/06/11 05:03:13;;;;;;;15.00;12.70;;;;;;;23.87;56.32;100350.27;117395;1186;21929;-50
2022/06/11 05:05:40;;;;;;;13.30;11.30;;;;;;;23.84;56.15;100349.43;117384;1185;21850;-56
2022/06/11 05:08:07;;;;;;;13.70;12.30;;;;;;;23.87;56.08;100352.77;117326;1185;21957;-56
2022/06/11 05:10:35;;;;;;;12.30;11.00;;;;;;;24.00;56.14;100355.14;117358;1186;21849;-50
2022/06/11 05:13:05;;;;;;;10.80;9.60;;;;;;;24.12;56.20;100357.60;117398;1186;21879;-50
2022/06/11 05:15:32;;;;;;;9.80;8.80;;;;;;;24.19;56.03;100352.45;117383;1182;23445;-51
2022/06/11 05:18:00;;;;;;;8.60;7.80;;;;;;;24.19;55.93;100356.02;117320;1183;21890;-56
2022/06/11 05:20:27;;;;;;;10.60;8.30;;;;;;;24.18;55.79;100363.09;117400;1182;24213;-56
2022/06/11 05:22:54;;;;;;;10.50;9.50;;;;;;;24.20;55.74;100361.34;117313;1185;21846;-57
2022/06/11 05:25:22;;;;;;;10.50;8.30;;;;;;;24.24;55.83;100363.05;117302;1186;21894;-57
2022/06/11 05:27:49;;;;;;;8.20;7.40;;;;;;;24.28;55.71;100365.23;117230;1186;22786;-56
2022/06/11 05:30:27;;;;;;;8.50;7.20;;;;;;;24.32;55.70;100366.55;117166;1188;22973;-56
2022/06/11 05:32:54;;;;;;;7.20;6.10;;;;;;;24.34;55.69;100368.03;117223;1185;22588;-57
2022/06/11 05:35:24;;;;;;;9.40;6.20;;;;;;;24.29;55.33;100369.48;117294;1182;21852;-57
2022/06/11 05:37:53;;;;;;;8.00;7.00;;;;;;;24.25;55.45;100372.48;117243;1184;21843;-57
2022/06/11 05:40:24;;;;;;;8.40;7.60;;;;;;;24.25;55.36;100369.04;117386;1183;21970;-54
2022/06/11 05:42:53;;;;;;;8.90;7.20;;;;;;;24.28;55.61;100366.88;117425;1185;21868;-51
2022/06/11 05:45:30;;;;;;;8.30;6.60;;;;;;;24.33;55.55;100367.21;117275;1180;21851;-51
2022/06/11 05:48:04;;;;;;;7.50;6.30;;;;;;;24.39;55.34;100369.32;117235;1186;23526;-57
2022/06/11 05:50:33;;;;;;;7.80;7.10;;;;;;;24.43;55.35;100367.77;116982;1184;24149;-57
2022/06/11 05:53:01;;;;;;;7.80;6.30;;;;;;;24.51;55.64;100369.73;117332;1185;21860;-52
2022/06/11 05:55:29;;;;;;;7.30;5.60;;;;;;;24.64;55.66;100370.45;117370;1186;22912;-57
2022/06/11 05:57:57;;;;;;;7.20;6.30;;;;;;;24.81;55.65;100373.36;117370;1185;21893;-54
2022/06/11 06:00:25;;;;;;;6.00;5.20;;;;;;;24.99;55.60;100373.30;117431;1182;21818;-57
2022/06/11 06:02:54;;;;;;;6.30;5.40;;;;;;;25.20;55.50;100375.95;117357;1183;21854;-52
2022/06/11 06:05:25;;;;;;;6.80;4.90;;;;;;;25.46;55.43;100376.20;117295;1184;21885;-57
2022/06/11 06:07:52;;;;;;;7.00;4.90;;;;;;;25.69;55.20;100377.16;117223;1183;21848;-52
2022/06/11 06:10:19;;;;;;;6.50;5.10;;;;;;;25.90;55.20;100377.91;117238;1184;21845;-53
2022/06/11 06:12:46;;;;;;;5.60;4.60;;;;;;;26.08;54.91;100377.80;117462;1182;21857;-53
2022/06/11 06:15:16;;;;;;;6.50;4.90;;;;;;;26.23;54.79;100377.35;117242;1182;22634;-53
2022/06/11 06:17:43;;;;;;;5.50;5.00;;;;;;;26.35;54.49;100373.78;117311;1185;23119;-57
2022/06/11 06:20:13;;;;;;;6.40;4.50;;;;;;;26.41;54.34;100375.42;117275;1183;22718;-57
2022/06/11 06:22:41;;;;;;;;;;;;;;;26.44;54.16;100370.54;117277;1184;21847;-53
2022/06/11 06:25:10;;;;;;;6.80;4.60;;;;;;;26.50;54.06;100369.89;117388;1183;21957;-57
2022/06/11 06:27:37;;;;;;;7.40;4.50;;;;;;;26.63;54.08;100369.94;117410;1182;22639;-54
2022/06/11 06:30:05;;;;;;;3.90;3.50;;;;;;;26.82;54.16;100368.61;117244;1182;22320;-56
2022/06/11 06:32:32;;;;;;;6.00;3.50;;;;;;;27.04;53.89;100359.27;117327;1185;24201;-56
2022/06/11 06:34:59;;;;;;;10.00;4.10;;;;;;;27.17;53.68;100359.09;117343;1185;21846;-57
2022/06/11 06:37:26;;;;;;;5.80;4.40;;;;;;;27.28;53.61;100360.91;117333;1183;23539;-56
2022/06/11 06:39:53;;;;;;;6.20;3.30;;;;;;;27.45;53.65;100358.77;117552;1184;23470;-54
2022/06/11 06:42:20;;;;;;;5.80;4.00;;;;;;;27.63;53.14;100360.02;117323;1185;23535;-53
2022/06/11 06:44:47;;;;;;;39.30;12.10;;;;;;;27.82;53.08;100357.34;117345;1182;21956;-56
2022/06/11 06:47:14;;;;;;;20.40;8.20;;;;;;;28.05;53.10;100356.80;117318;1184;23528;-53
2022/06/11 06:49:41;;;;;;;13.70;5.80;;;;;;;28.43;53.00;100358.41;117350;1182;21849;-57
2022/06/11 06:52:08;;;;;;;3.80;2.80;;;;;;;28.83;52.69;100357.20;117473;1185;23462;-53
2022/06/11 06:54:35;;;;;;;5.70;2.70;;;;;;;29.04;52.01;100360.09;117376;1182;22975;-56
2022/06/11 06:57:03;;;;;;;9.50;3.90;;;;;;;29.11;51.26;100360.87;117417;1182;22297;-53
2022/06/11 06:59:30;;;;;;;22.60;8.90;;;;;;;29.15;51.16;100361.96;117412;1183;22930;-56
2022/06/11 07:01:57;;;;;;;5.70;2.90;;;;;;;29.22;51.11;100367.70;117452;1182;21908;-57
2022/06/11 07:04:24;;;;;;;10.70;4.50;;;;;;;29.29;50.79;100373.90;117414;1185;21967;-54
2022/06/11 07:06:52;;;;;;;4.40;2.70;;;;;;;29.42;50.82;100378.87;117331;1185;23455;-55
2022/06/11 07:09:19;;;;;;;6.10;3.00;;;;;;;29.64;50.75;100377.54;117307;1186;23536;-54
2022/06/11 07:11:46;;;;;;;5.20;3.10;;;;;;;29.88;50.98;100377.73;117325;1182;21888;-54
2022/06/11 07:14:13;;;;;;;3.10;2.20;;;;;;;30.33;50.61;100375.33;117339;1183;21855;-54
2022/06/11 07:16:46;;;;;;;4.20;2.70;;;;;;;30.79;50.60;100373.23;117473;1183;24270;-52
2022/06/11 07:19:15;;;;;;;3.80;2.00;;;;;;;31.17;50.44;100371.20;117423;1186;21846;-54
2022/06/11 07:21:44;;;;;;;3.20;2.30;;;;;;;31.50;50.26;100368.80;117424;1182;23538;-54
2022/06/11 07:24:15;;;;;;;4.80;2.20;;;;;;;31.82;50.03;100367.25;117312;1185;21881;-57
2022/06/11 07:26:44;;;;;;;3.80;2.30;;;;;;;32.02;49.46;100368.64;117365;1185;21924;-57
2022/06/11 07:29:14;;;;;;;4.10;2.20;;;;;;;32.02;48.82;100369.55;117372;1183;21866;-54
2022/06/11 07:31:42;;;;;;;3.50;2.40;;;;;;;31.99;48.09;100370.77;117323;1182;21949;-54
2022/06/11 07:34:10;;;;;;;5.00;2.10;;;;;;;31.96;48.00;100373.28;117133;1186;23464;-56
2022/06/11 07:36:37;;;;;;;3.50;2.10;;;;;;;32.13;48.54;100370.98;117293;1183;23553;-57
2022/06/11 07:39:04;;;;;;;3.60;2.10;;;;;;;32.44;48.79;100368.27;117805;1183;21995;-52
2022/06/11 07:41:31;;;;;;;3.60;2.30;;;;;;;32.85;48.44;100363.93;117303;1186;22806;-54
2022/06/11 07:43:58;;;;;;;4.00;1.80;;;;;;;33.09;47.07;100362.89;117360;1186;23442;-56
2022/06/11 07:46:25;;;;;;;3.40;2.10;;;;;;;33.15;47.20;100360.40;117227;1185;21864;-55
2022/06/11 07:48:52;;;;;;;6.50;2.00;;;;;;;33.37;47.50;100361.54;117352;1186;22939;-54
2022/06/11 07:51:19;;;;;;;4.40;1.90;;;;;;;33.68;47.40;100362.31;117273;1182;23643;-55
2022/06/11 07:53:47;;;;;;;6.10;4.50;;;;;;;33.91;47.13;100363.61;117349;1184;21848;-55
2022/06/11 07:56:15;;;;;;;7.00;4.50;;;;;;;33.98;46.97;100363.77;117285;1182;24241;-56
2022/06/11 07:58:42;;;;;;;7.50;3.10;;;;;;;33.88;46.54;100359.91;117353;1183;22103;-56
2022/06/11 08:01:09;;;;;;;8.50;3.70;;;;;;;33.74;46.49;100356.69;117356;1183;24130;-53
2022/06/11 08:03:38;;;;;;;7.20;3.00;;;;;;;33.70;46.55;100352.84;117397;1184;23462;-54
2022/06/11 08:06:05;;;;;;;5.20;3.00;;;;;;;33.71;46.33;100355.95;117430;1185;22311;-55
2022/06/11 08:08:33;;;;;;;4.70;2.00;;;;;;;33.84;46.51;100360.95;117340;1185;23448;-55
2022/06/11 08:11:00;;;;;;;4.80;2.50;;;;;;;34.12;46.19;100359.05;117507;1183;22986;-53
2022/06/11 08:13:27;;;;;;;7.70;1.90;;;;;;;34.29;45.70;100358.42;117414;1180;23666;-54
2022/06/11 08:15:55;;;;;;;4.20;2.10;;;;;;;34.35;45.52;100359.37;117403;1186;21853;-55
2022/06/11 08:18:23;;;;;;;4.30;2.50;;;;;;;34.43;45.35;100356.61;117376;1185;21852;-58
2022/06/11 08:20:51;;;;;;;3.30;2.60;;;;;;;34.55;45.01;100361.72;117233;1182;22940;-56
2022/06/11 08:23:19;;;;;;;3.70;2.20;;;;;;;34.74;45.39;100360.09;117332;1185;21878;-54
2022/06/11 08:25:47;;;;;;;3.10;2.00;;;;;;;34.96;44.61;100361.33;117313;1186;21852;-54
2022/06/11 08:28:14;;;;;;;4.80;1.90;;;;;;;35.16;44.85;100363.64;117241;1182;21849;-54
2022/06/11 08:30:41;;;;;;;4.70;1.80;;;;;;;35.39;44.52;100358.35;117394;1183;22611;-54
2022/06/11 08:33:08;;;;;;;2.70;1.90;;;;;;;35.64;44.26;100361.80;117399;1188;21865;-56
2022/06/11 08:35:36;;;;;;;4.10;2.10;;;;;;;35.85;43.91;100360.20;117464;1186;21856;-54
2022/06/11 08:38:04;;;;;;;3.90;1.50;;;;;;;36.01;43.61;100362.87;117324;1183;22160;-53
2022/06/11 08:40:53;;;;;;;4.60;1.80;;;;;;;36.13;43.62;100362.39;117352;1183;21853;-53
2022/06/11 08:43:34;;;;;;;5.00;1.80;;;;;;;36.22;43.51;100360.45;117121;1187;22001;-54
2022/06/11 08:46:04;;;;;;;3.50;1.60;;;;;;;36.25;42.16;100365.17;117312;1186;23465;-54
2022/06/11 08:49:07;;;;;;;3.10;1.90;;;;;;;36.08;41.87;100362.82;117327;1185;21973;-54
2022/06/11 08:51:50;;;;;;;6.60;2.30;;;;;;;35.96;41.01;100362.27;116934;1189;21865;-54
2022/06/11 08:54:28;;;;;;;3.10;1.60;;;;;;;35.96;41.01;100362.61;117186;1185;24184;-56
2022/06/11 08:57:13;;;;;;;20.60;7.00;;;;;;;35.94;41.55;100365.92;117348;1186;22905;-54
2022/06/11 09:00:06;;;;;;;22.50;8.80;;;;;;;36.04;41.94;100365.86;117315;1185;21885;-56
2022/06/11 09:02:45;;;;;;;18.10;6.10;;;;;;;36.21;42.17;100364.40;117321;1182;22915;-54
2022/06/11 09:05:50;;;;;;;15.20;5.50;;;;;;;36.37;41.66;100366.45;117269;1183;22822;-57
2022/06/11 09:08:23;;;;;;;17.50;5.30;;;;;;;36.38;41.53;100367.42;117186;1184;21893;-58
2022/06/11 09:11:08;;;;;;;10.00;3.60;;;;;;;36.38;41.48;100368.30;117246;1184;22857;-53
2022/06/11 09:13:59;;;;;;;3.70;2.10;;;;;;;36.46;41.26;100368.60;117171;1184;21858;-56
2022/06/11 09:16:35;;;;;;;2.70;1.60;;;;;;;36.25;40.61;100364.92;117310;1183;22790;-58
2022/06/11 09:19:34;;;;;;;4.90;1.90;;;;;;;36.00;40.76;100361.96;117269;1183;23596;-57
2022/06/11 09:22:01;;;;;;;6.20;1.90;;;;;;;35.96;40.49;100360.59;117289;1182;21911;-54
2022/06/11 09:24:48;;;;;;;2.50;1.30;;;;;;;35.91;40.69;100360.33;117396;1182;21846;-55
2022/06/11 09:27:38;;;;;;;3.70;1.70;;;;;;;35.80;40.53;100362.27;117305;1186;21853;-56
2022/06/11 09:30:34;;;;;;;3.30;1.40;;;;;;;35.67;40.36;100361.48;117311;1184;21858;-56
2022/06/11 09:33:17;;;;;;;2.20;1.40;;;;;;;35.62;40.48;100359.52;117473;1185;23231;-56
2022/06/11 09:35:46;;;;;;;3.20;1.60;;;;;;;35.62;40.41;100358.61;117520;1182;23544;-56
2022/06/11 09:38:29;;;;;;;4.50;1.90;;;;;;;35.62;40.32;100357.67;117431;1183;23682;-57
2022/06/11 09:41:20;;;;;;;4.10;1.30;;;;;;;35.70;40.46;100357.27;117400;1182;23540;-56
2022/06/11 09:43:53;;;;;;;2.30;1.70;;;;;;;35.83;40.28;100352.39;117377;1183;22902;-55
2022/06/11 09:46:41;;;;;;;3.00;1.60;;;;;;;35.97;40.22;100350.83;117317;1186;21890;-56
2022/06/11 09:49:42;;;;;;;3.60;1.50;;;;;;;36.10;40.12;100346.17;117396;1184;23462;-56
2022/06/11 09:52:20;;;;;;;2.70;1.80;;;;;;;36.21;39.87;100342.90;117294;1182;22636;-56
2022/06/11 09:54:59;;;;;;;2.40;1.70;;;;;;;36.26;39.32;100347.61;117311;1185;22716;-55
2022/06/11 09:57:33;;;;;;;3.00;1.80;;;;;;;36.14;38.72;100345.50;117164;1182;23470;-57
2022/06/11 10:00:24;;;;;;;3.60;1.70;;;;;;;35.87;38.33;100345.45;117280;1185;21853;-56
2022/06/11 10:05:52;;;;;;;3.90;2.30;;;;;;;35.52;38.44;100343.23;117469;1185;22085;-56
2022/06/11 10:08:28;;;;;;;3.50;1.90;;;;;;;35.43;37.77;100344.75;117419;1185;23435;-56
2022/06/11 10:10:55;;;;;;;3.30;1.80;;;;;;;35.26;37.27;100344.47;117295;1184;22817;-56
2022/06/11 10:13:28;;;;;;;3.00;2.00;;;;;;;35.11;37.30;100340.58;117120;1183;22969;-57
2022/06/11 10:15:55;;;;;;;3.50;1.80;;;;;;;35.05;37.98;100338.83;117347;1185;22969;-56
2022/06/11 10:18:32;;;;;;;8.10;2.40;;;;;;;35.31;38.51;100336.66;117277;1185;23438;-56
2022/06/11 10:21:04;;;;;;;7.30;3.20;;;;;;;35.86;38.62;100329.60;117269;1185;23550;-55
2022/06/11 10:23:46;;;;;;;6.20;2.30;;;;;;;36.51;38.58;100328.52;117345;1182;21852;-56
2022/06/11 10:26:34;;;;;;;2.40;1.70;;;;;;;37.12;37.90;100328.99;117262;1185;24206;-56
2022/06/11 10:29:14;;;;;;;3.10;1.70;;;;;;;37.55;37.51;100330.06;117299;1183;22227;-57
2022/06/11 10:31:48;;;;;;;2.60;1.90;;;;;;;37.78;36.84;100323.95;117285;1182;23506;-55
2022/06/11 10:34:23;;;;;;;4.60;2.20;;;;;;;37.78;36.08;100321.92;117325;1185;21862;-57
2022/06/11 10:37:18;;;;;;;2.60;1.50;;;;;;;37.81;35.89;100318.39;117348;1185;21858;-57
2022/06/11 10:39:52;;;;;;;2.50;1.60;;;;;;;37.77;35.41;100314.57;117356;1185;21889;-55
2022/06/11 10:42:26;;;;;;;6.50;2.00;;;;;;;37.65;35.36;100318.70;117348;1182;22601;-56
2022/06/11 10:44:53;;;;;;;9.00;3.10;;;;;;;37.90;35.97;100310.73;117370;1183;21897;-54
2022/06/11 10:47:42;;;;;;;7.30;2.90;;;;;;;38.40;35.95;100307.28;117282;1185;21860;-54
2022/06/11 10:50:11;;;;;;;4.50;1.40;;;;;;;38.97;35.81;100296.41;117297;1184;21944;-56
2022/06/11 10:52:52;;;;;;;5.10;1.80;;;;;;;39.24;34.66;100298.41;117443;1182;23029;-58
2022/06/11 10:55:42;;;;;;;2.40;1.50;;;;;;;38.80;33.81;100301.60;117378;1186;21839;-57
2022/06/11 10:58:26;;;;;;;2.40;1.40;;;;;;;38.25;33.88;100300.73;117335;1185;22859;-54
2022/06/11 11:00:59;;;;;;;2.40;1.50;;;;;;;37.85;33.87;100299.25;117321;1184;21855;-54
2022/06/11 11:03:39;;;;;;;3.40;1.60;;;;;;;37.55;34.11;100296.54;117483;1182;23250;-54
2022/06/11 11:06:16;;;;;;;2.80;1.30;;;;;;;37.44;33.70;100292.27;117368;1184;21884;-54
2022/06/11 11:08:52;;;;;;;1.90;1.40;;;;;;;37.40;34.24;100291.42;117358;1186;21948;-55
2022/06/11 11:11:19;;;;;;;2.10;1.50;;;;;;;37.72;33.58;100288.81;117380;1186;21853;-56
2022/06/11 11:13:46;;;;;;;2.00;1.50;;;;;;;37.87;33.31;100284.48;117247;1185;23673;-56
2022/06/11 11:16:21;;;;;;;2.20;1.40;;;;;;;38.09;33.03;100285.67;117320;1182;21859;-55
2022/06/11 11:19:04;;;;;;;3.10;1.40;;;;;;;38.48;33.65;100281.45;117294;1184;21905;-55
2022/06/11 11:21:32;;;;;;;3.30;1.90;;;;;;;39.02;33.94;100278.17;117406;1188;22372;-56
2022/06/11 11:24:13;;;;;;;2.50;1.40;;;;;;;39.55;33.62;100276.99;117414;1182;24181;-55
2022/06/11 11:27:06;;;;;;;3.80;1.80;;;;;;;39.87;32.44;100274.65;117357;1186;21961;-55
2022/06/11 11:29:47;;;;;;;2.00;1.60;;;;;;;39.74;31.88;100268.21;117366;1182;22272;-55
2022/06/11 11:32:44;;;;;;;4.90;1.50;;;;;;;39.65;31.70;100263.82;117410;1184;21961;-54
2022/06/11 11:35:26;;;;;;;1.80;1.30;;;;;;;39.33;31.40;100266.32;117310;1185;22667;-54
2022/06/11 11:38:20;;;;;;;2.80;1.40;;;;;;;39.09;30.99;100266.17;117364;1183;21865;-55
2022/06/11 11:40:47;;;;;;;6.10;1.40;;;;;;;39.01;31.23;100261.34;117348;1185;21858;-54
2022/06/11 11:43:15;;;;;;;2.00;1.20;;;;;;;38.99;31.41;100259.14;117337;1185;21858;-54